sensor_id;sensor_type;location;lat;lon;timestamp;P1;durP1;ratioP1;P2;durP2;ratioP2
61338;SDS011;47213;52.362;4.606;2023-08-17T00:15:03;6.50;;;2.80;;
61338;SDS011;47213;52.362;4.606;2023-08-17T00:25:03;8.60;;;2.80;;
61338;SDS011;47213;52.362;4.606;2023-08-17T00:30:03;8.60;;;2.80;;
61338;SDS011;47213;52.362;4.606;2023-08-17T00:35:02;7.60;;;2.70;;
61338;SDS011;47213;52.362;4.606;2023-08-17T00:40:03;7.60;;;2.70;;
61338;SDS011;47213;52.362;4.606;2023-08-17T00:45:03;7.60;;;2.80;;
61338;SDS011;47213;52.362;4.606;2023-08-17T00:55:03;10.30;;;3.00;;
61338;SDS011;47213;52.362;4.606;2023-08-17T01:00:04;10.30;;;3.00;;
61338;SDS011;47213;52.362;4.606;2023-08-17T01:05:03;8.40;;;2.80;;
61338;SDS011;47213;52.362;4.606;2023-08-17T01:10:04;8.40;;;2.80;;
61338;SDS011;47213;52.362;4.606;2023-08-17T01:25:03;8.40;;;2.80;;
61338;SDS011;47213;52.362;4.606;2023-08-17T01:45:03;9.00;;;2.50;;
61338;SDS011;47213;52.362;4.606;2023-08-17T01:50:03;9.00;;;2.50;;
61338;SDS011;47213;52.362;4.606;2023-08-17T01:55:03;8.60;;;2.60;;
61338;SDS011;47213;52.362;4.606;2023-08-17T02:00:04;8.60;;;2.60;;
61338;SDS011;47213;52.362;4.606;2023-08-17T02:05:03;8.20;;;2.60;;
61338;SDS011;47213;52.362;4.606;2023-08-17T02:10:03;8.20;;;2.60;;
61338;SDS011;47213;52.362;4.606;2023-08-17T02:15:03;10.00;;;2.80;;
61338;SDS011;47213;52.362;4.606;2023-08-17T02:20:03;10.00;;;2.80;;
61338;SDS011;47213;52.362;4.606;2023-08-17T02:35:03;8.80;;;3.00;;
61338;SDS011;47213;52.362;4.606;2023-08-17T02:45:03;9.20;;;3.20;;
61338;SDS011;47213;52.362;4.606;2023-08-17T02:50:03;9.20;;;3.20;;
61338;SDS011;47213;52.362;4.606;2023-08-17T02:55:03;7.90;;;2.90;;
61338;SDS011;47213;52.362;4.606;2023-08-17T03:10:03;9.00;;;3.00;;
61338;SDS011;47213;52.362;4.606;2023-08-17T03:15:04;9.20;;;3.10;;
61338;SDS011;47213;52.362;4.606;2023-08-17T03:20:03;9.20;;;3.10;;
61338;SDS011;47213;52.362;4.606;2023-08-17T03:25:03;9.70;;;3.70;;
61338;SDS011;47213;52.362;4.606;2023-08-17T03:45:03;8.60;;;3.20;;
61338;SDS011;47213;52.362;4.606;2023-08-17T03:50:03;8.60;;;3.20;;
61338;SDS011;47213;52.362;4.606;2023-08-17T03:55:03;9.10;;;3.20;;
61338;SDS011;47213;52.362;4.606;2023-08-17T04:25:03;9.00;;;3.30;;
61338;SDS011;47213;52.362;4.606;2023-08-17T04:40:03;9.80;;;3.60;;
61338;SDS011;47213;52.362;4.606;2023-08-17T04:45:03;9.80;;;3.60;;
61338;SDS011;47213;52.362;4.606;2023-08-17T04:50:03;9.80;;;3.60;;
61338;SDS011;47213;52.362;4.606;2023-08-17T05:00:04;6.60;;;3.30;;
61338;SDS011;47213;52.362;4.606;2023-08-17T05:10:03;10.00;;;3.40;;
61338;SDS011;47213;52.362;4.606;2023-08-17T05:20:04;8.30;;;3.30;;
61338;SDS011;47213;52.362;4.606;2023-08-17T05:30:03;8.50;;;3.30;;
61338;SDS011;47213;52.362;4.606;2023-08-17T06:00:03;9.40;;;3.00;;
61338;SDS011;47213;52.362;4.606;2023-08-17T06:10:04;9.20;;;3.00;;
61338;SDS011;47213;52.362;4.606;2023-08-17T06:20:04;10.30;;;3.10;;
61338;SDS011;47213;52.362;4.606;2023-08-17T06:30:04;10.10;;;3.00;;
61338;SDS011;47213;52.362;4.606;2023-08-17T06:40:04;8.80;;;3.00;;
61338;SDS011;47213;52.362;4.606;2023-08-17T06:45:04;8.80;;;3.00;;
61338;SDS011;47213;52.362;4.606;2023-08-17T06:50:04;8.40;;;2.80;;
61338;SDS011;47213;52.362;4.606;2023-08-17T06:55:04;8.40;;;2.80;;
61338;SDS011;47213;52.362;4.606;2023-08-17T07:00:05;8.50;;;2.60;;
61338;SDS011;47213;52.362;4.606;2023-08-17T07:05:04;8.50;;;2.60;;
61338;SDS011;47213;52.362;4.606;2023-08-17T07:10:03;7.70;;;2.40;;
61338;SDS011;47213;52.362;4.606;2023-08-17T07:15:04;7.70;;;2.40;;
61338;SDS011;47213;52.362;4.606;2023-08-17T07:25:04;7.60;;;2.20;;
61338;SDS011;47213;52.362;4.606;2023-08-17T07:30:04;7.80;;;2.20;;
61338;SDS011;47213;52.362;4.606;2023-08-17T07:35:04;7.80;;;2.20;;
61338;SDS011;47213;52.362;4.606;2023-08-17T07:45:04;8.60;;;2.30;;
61338;SDS011;47213;52.362;4.606;2023-08-17T07:50:05;7.70;;;2.20;;
61338;SDS011;47213;52.362;4.606;2023-08-17T07:55:04;7.70;;;2.20;;
61338;SDS011;47213;52.362;4.606;2023-08-17T08:00:04;8.50;;;2.50;;
61338;SDS011;47213;52.362;4.606;2023-08-17T08:10:04;7.90;;;2.20;;
61338;SDS011;47213;52.362;4.606;2023-08-17T08:20:04;6.40;;;2.10;;
61338;SDS011;47213;52.362;4.606;2023-08-17T08:25:04;6.40;;;2.10;;
61338;SDS011;47213;52.362;4.606;2023-08-17T08:30:04;6.20;;;1.80;;
61338;SDS011;47213;52.362;4.606;2023-08-17T08:35:04;6.20;;;1.80;;
61338;SDS011;47213;52.362;4.606;2023-08-17T08:40:11;4.70;;;1.70;;
61338;SDS011;47213;52.362;4.606;2023-08-17T08:45:04;4.70;;;1.70;;
61338;SDS011;47213;52.362;4.606;2023-08-17T08:50:05;8.00;;;2.10;;
61338;SDS011;47213;52.362;4.606;2023-08-17T08:55:10;8.00;;;2.10;;
61338;SDS011;47213;52.362;4.606;2023-08-17T09:00:05;7.20;;;1.90;;
61338;SDS011;47213;52.362;4.606;2023-08-17T09:05:06;7.20;;;1.90;;
61338;SDS011;47213;52.362;4.606;2023-08-17T09:10:04;6.00;;;1.80;;
61338;SDS011;47213;52.362;4.606;2023-08-17T09:20:04;5.50;;;1.60;;
61338;SDS011;47213;52.362;4.606;2023-08-17T09:25:05;5.50;;;1.60;;
61338;SDS011;47213;52.362;4.606;2023-08-17T09:30:06;7.00;;;1.80;;
61338;SDS011;47213;52.362;4.606;2023-08-17T09:35:05;7.00;;;1.80;;
61338;SDS011;47213;52.362;4.606;2023-08-17T09:40:04;6.10;;;1.80;;
61338;SDS011;47213;52.362;4.606;2023-08-17T09:45:04;6.10;;;1.80;;
61338;SDS011;47213;52.362;4.606;2023-08-17T09:50:05;6.40;;;1.70;;
61338;SDS011;47213;52.362;4.606;2023-08-17T09:55:05;6.40;;;1.70;;
61338;SDS011;47213;52.362;4.606;2023-08-17T10:00:04;6.00;;;1.80;;
61338;SDS011;47213;52.362;4.606;2023-08-17T10:05:05;6.00;;;1.80;;
61338;SDS011;47213;52.362;4.606;2023-08-17T10:15:07;6.40;;;1.90;;
61338;SDS011;47213;52.362;4.606;2023-08-17T10:20:05;7.70;;;1.70;;
61338;SDS011;47213;52.362;4.606;2023-08-17T10:25:05;7.70;;;1.70;;
61338;SDS011;47213;52.362;4.606;2023-08-17T10:30:05;6.50;;;1.70;;
61338;SDS011;47213;52.362;4.606;2023-08-17T10:35:05;6.50;;;1.70;;
61338;SDS011;47213;52.362;4.606;2023-08-17T10:40:04;5.40;;;1.40;;
61338;SDS011;47213;52.362;4.606;2023-08-17T10:45:35;5.40;;;1.40;;
61338;SDS011;47213;52.362;4.606;2023-08-17T10:50:15;5.50;;;1.20;;
61338;SDS011;47213;52.362;4.606;2023-08-17T10:55:06;5.50;;;1.20;;
61338;SDS011;47213;52.362;4.606;2023-08-17T11:00:21;6.40;;;1.30;;
61338;SDS011;47213;52.362;4.606;2023-08-17T11:05:05;6.40;;;1.30;;
61338;SDS011;47213;52.362;4.606;2023-08-17T11:15:04;4.00;;;1.30;;
61338;SDS011;47213;52.362;4.606;2023-08-17T11:20:04;4.40;;;1.10;;
61338;SDS011;47213;52.362;4.606;2023-08-17T11:25:05;4.40;;;1.10;;
61338;SDS011;47213;52.362;4.606;2023-08-17T11:30:05;5.20;;;1.10;;
61338;SDS011;47213;52.362;4.606;2023-08-17T11:35:04;5.20;;;1.10;;
61338;SDS011;47213;52.362;4.606;2023-08-17T11:40:04;4.60;;;1.00;;
61338;SDS011;47213;52.362;4.606;2023-08-17T11:45:05;4.60;;;1.00;;
61338;SDS011;47213;52.362;4.606;2023-08-17T11:50:05;3.90;;;0.90;;
61338;SDS011;47213;52.362;4.606;2023-08-17T11:55:07;3.90;;;0.90;;
61338;SDS011;47213;52.362;4.606;2023-08-17T12:00:05;5.40;;;1.00;;
61338;SDS011;47213;52.362;4.606;2023-08-17T12:05:04;5.40;;;1.00;;
61338;SDS011;47213;52.362;4.606;2023-08-17T12:10:05;6.50;;;1.30;;
61338;SDS011;47213;52.362;4.606;2023-08-17T12:15:05;6.50;;;1.30;;
61338;SDS011;47213;52.362;4.606;2023-08-17T12:20:05;5.20;;;1.40;;
61338;SDS011;47213;52.362;4.606;2023-08-17T12:25:05;5.20;;;1.40;;
61338;SDS011;47213;52.362;4.606;2023-08-17T12:30:05;5.90;;;1.60;;
61338;SDS011;47213;52.362;4.606;2023-08-17T12:35:05;5.90;;;1.60;;
61338;SDS011;47213;52.362;4.606;2023-08-17T12:40:05;4.00;;;1.40;;
61338;SDS011;47213;52.362;4.606;2023-08-17T12:45:04;4.00;;;1.40;;
61338;SDS011;47213;52.362;4.606;2023-08-17T12:50:05;7.10;;;1.60;;
61338;SDS011;47213;52.362;4.606;2023-08-17T12:55:05;7.10;;;1.60;;
61338;SDS011;47213;52.362;4.606;2023-08-17T13:00:05;5.20;;;1.60;;
61338;SDS011;47213;52.362;4.606;2023-08-17T13:05:04;5.20;;;1.60;;
61338;SDS011;47213;52.362;4.606;2023-08-17T13:10:05;7.00;;;1.90;;
61338;SDS011;47213;52.362;4.606;2023-08-17T13:20:05;8.10;;;2.00;;
61338;SDS011;47213;52.362;4.606;2023-08-17T13:25:05;8.10;;;2.00;;
61338;SDS011;47213;52.362;4.606;2023-08-17T13:35:05;5.50;;;2.00;;
61338;SDS011;47213;52.362;4.606;2023-08-17T13:40:05;6.90;;;2.10;;
61338;SDS011;47213;52.362;4.606;2023-08-17T13:45:05;6.90;;;2.10;;
61338;SDS011;47213;52.362;4.606;2023-08-17T13:50:05;6.90;;;2.10;;
61338;SDS011;47213;52.362;4.606;2023-08-17T13:55:05;6.90;;;2.10;;
61338;SDS011;47213;52.362;4.606;2023-08-17T14:00:05;6.10;;;2.10;;
61338;SDS011;47213;52.362;4.606;2023-08-17T14:05:05;6.10;;;2.10;;
61338;SDS011;47213;52.362;4.606;2023-08-17T14:15:06;6.20;;;2.20;;
61338;SDS011;47213;52.362;4.606;2023-08-17T14:20:05;5.70;;;2.10;;
61338;SDS011;47213;52.362;4.606;2023-08-17T14:25:05;5.70;;;2.10;;
61338;SDS011;47213;52.362;4.606;2023-08-17T14:30:05;7.10;;;2.10;;
61338;SDS011;47213;52.362;4.606;2023-08-17T14:40:05;8.90;;;2.30;;
61338;SDS011;47213;52.362;4.606;2023-08-17T14:45:05;8.90;;;2.30;;
61338;SDS011;47213;52.362;4.606;2023-08-17T14:50:05;8.70;;;2.30;;
61338;SDS011;47213;52.362;4.606;2023-08-17T14:55:05;8.70;;;2.30;;
61338;SDS011;47213;52.362;4.606;2023-08-17T15:00:07;6.60;;;2.20;;
61338;SDS011;47213;52.362;4.606;2023-08-17T15:05:05;6.60;;;2.20;;
61338;SDS011;47213;52.362;4.606;2023-08-17T15:10:05;7.40;;;2.30;;
61338;SDS011;47213;52.362;4.606;2023-08-17T15:15:05;7.40;;;2.30;;
61338;SDS011;47213;52.362;4.606;2023-08-17T15:25:05;8.90;;;2.30;;
61338;SDS011;47213;52.362;4.606;2023-08-17T15:30:06;7.70;;;2.20;;
61338;SDS011;47213;52.362;4.606;2023-08-17T15:35:05;7.70;;;2.20;;
61338;SDS011;47213;52.362;4.606;2023-08-17T15:40:05;5.70;;;2.00;;
61338;SDS011;47213;52.362;4.606;2023-08-17T15:50:05;7.70;;;2.00;;
61338;SDS011;47213;52.362;4.606;2023-08-17T15:55:05;7.70;;;2.00;;
61338;SDS011;47213;52.362;4.606;2023-08-17T16:05:05;6.10;;;2.30;;
61338;SDS011;47213;52.362;4.606;2023-08-17T16:10:05;6.00;;;2.40;;
61338;SDS011;47213;52.362;4.606;2023-08-17T16:20:05;6.30;;;2.40;;
61338;SDS011;47213;52.362;4.606;2023-08-17T16:30:05;7.90;;;2.70;;
61338;SDS011;47213;52.362;4.606;2023-08-17T16:35:05;7.90;;;2.70;;
61338;SDS011;47213;52.362;4.606;2023-08-17T16:40:05;7.20;;;2.80;;
61338;SDS011;47213;52.362;4.606;2023-08-17T16:45:05;7.20;;;2.80;;
61338;SDS011;47213;52.362;4.606;2023-08-17T16:55:05;6.80;;;2.30;;
61338;SDS011;47213;52.362;4.606;2023-08-17T17:00:05;7.90;;;2.40;;
61338;SDS011;47213;52.362;4.606;2023-08-17T17:05:05;7.90;;;2.40;;
61338;SDS011;47213;52.362;4.606;2023-08-17T17:20:06;8.20;;;3.00;;
61338;SDS011;47213;52.362;4.606;2023-08-17T17:25:05;8.20;;;3.00;;
61338;SDS011;47213;52.362;4.606;2023-08-17T17:40:06;7.90;;;3.00;;
61338;SDS011;47213;52.362;4.606;2023-08-17T17:45:05;7.90;;;3.00;;
61338;SDS011;47213;52.362;4.606;2023-08-17T17:50:06;9.00;;;3.30;;
61338;SDS011;47213;52.362;4.606;2023-08-17T17:55:05;9.00;;;3.30;;
61338;SDS011;47213;52.362;4.606;2023-08-17T18:00:06;9.50;;;3.40;;
61338;SDS011;47213;52.362;4.606;2023-08-17T18:10:06;9.00;;;3.40;;
61338;SDS011;47213;52.362;4.606;2023-08-17T18:15:05;9.00;;;3.40;;
61338;SDS011;47213;52.362;4.606;2023-08-17T18:20:06;9.40;;;3.70;;
61338;SDS011;47213;52.362;4.606;2023-08-17T18:25:06;9.40;;;3.70;;
61338;SDS011;47213;52.362;4.606;2023-08-17T18:30:06;10.70;;;3.70;;
61338;SDS011;47213;52.362;4.606;2023-08-17T18:40:06;8.40;;;3.30;;
61338;SDS011;47213;52.362;4.606;2023-08-17T18:50:06;9.10;;;3.30;;
61338;SDS011;47213;52.362;4.606;2023-08-17T18:55:06;9.10;;;3.30;;
61338;SDS011;47213;52.362;4.606;2023-08-17T19:00:06;9.00;;;3.60;;
61338;SDS011;47213;52.362;4.606;2023-08-17T19:20:06;10.10;;;4.00;;
61338;SDS011;47213;52.362;4.606;2023-08-17T19:25:06;10.10;;;4.00;;
61338;SDS011;47213;52.362;4.606;2023-08-17T19:30:06;9.20;;;3.90;;
61338;SDS011;47213;52.362;4.606;2023-08-17T19:35:06;9.20;;;3.90;;
61338;SDS011;47213;52.362;4.606;2023-08-17T19:40:06;11.70;;;4.80;;
61338;SDS011;47213;52.362;4.606;2023-08-17T19:45:06;11.70;;;4.80;;
61338;SDS011;47213;52.362;4.606;2023-08-17T19:55:06;9.60;;;4.40;;
61338;SDS011;47213;52.362;4.606;2023-08-17T20:00:06;9.40;;;5.80;;
61338;SDS011;47213;52.362;4.606;2023-08-17T20:10:06;11.20;;;6.60;;
61338;SDS011;47213;52.362;4.606;2023-08-17T20:20:06;12.40;;;6.80;;
61338;SDS011;47213;52.362;4.606;2023-08-17T20:25:06;12.40;;;6.80;;
61338;SDS011;47213;52.362;4.606;2023-08-17T20:30:06;11.40;;;6.90;;
61338;SDS011;47213;52.362;4.606;2023-08-17T20:55:06;9.10;;;6.00;;
61338;SDS011;47213;52.362;4.606;2023-08-17T21:05:06;8.80;;;5.70;;
61338;SDS011;47213;52.362;4.606;2023-08-17T21:10:06;8.00;;;5.30;;
61338;SDS011;47213;52.362;4.606;2023-08-17T21:25:06;8.90;;;4.90;;
61338;SDS011;47213;52.362;4.606;2023-08-17T21:30:06;7.70;;;4.70;;
61338;SDS011;47213;52.362;4.606;2023-08-17T21:50:06;8.50;;;6.10;;
61338;SDS011;47213;52.362;4.606;2023-08-17T22:05:06;9.70;;;6.50;;
61338;SDS011;47213;52.362;4.606;2023-08-17T22:15:06;7.80;;;5.30;;
61338;SDS011;47213;52.362;4.606;2023-08-17T22:30:06;7.50;;;4.40;;
61338;SDS011;47213;52.362;4.606;2023-08-17T22:35:06;7.50;;;4.40;;
61338;SDS011;47213;52.362;4.606;2023-08-17T22:40:06;6.80;;;4.10;;
61338;SDS011;47213;52.362;4.606;2023-08-17T22:45:06;6.80;;;4.10;;
61338;SDS011;47213;52.362;4.606;2023-08-17T22:50:06;6.30;;;3.80;;
61338;SDS011;47213;52.362;4.606;2023-08-17T23:00:07;7.90;;;3.90;;
61338;SDS011;47213;52.362;4.606;2023-08-17T23:05:06;7.90;;;3.90;;
61338;SDS011;47213;52.362;4.606;2023-08-17T23:15:06;5.40;;;3.20;;
61338;SDS011;47213;52.362;4.606;2023-08-17T23:20:07;5.80;;;3.30;;
61338;SDS011;47213;52.362;4.606;2023-08-17T23:30:06;7.20;;;4.00;;
61338;SDS011;47213;52.362;4.606;2023-08-17T23:35:06;7.20;;;4.00;;
61338;SDS011;47213;52.362;4.606;2023-08-17T23:50:06;6.50;;;3.60;;
